Time;durP1;ratioP1;P1;durP2;ratioP2;P2;SDS_P1;SDS_P2;PMS_P1;PMS_P2;Temp;Humidity;BMP_temperature;BMP_pressure;BME280_temperature;BME280_humidity;BME280_pressure;Samples;Min_cycle;Max_cycle;Signal;HPM_P1;HPM_P2
2023/08/05 00:00:45;;;;;;;1.98;1.10;;;22.00;75.00;;;;;;5072754;28;20377;-63
2023/08/05 00:03:11;;;;;;;2.28;1.10;;;22.00;75.00;;;;;;5072773;28;20140;-63
2023/08/05 00:05:37;;;;;;;3.35;1.35;;;21.90;74.90;;;;;;5071766;28;20044;-63
2023/08/05 00:08:04;;;;;;;2.42;1.10;;;21.90;74.90;;;;;;5072767;28;20075;-63
2023/08/05 00:10:30;;;;;;;2.63;1.20;;;21.90;74.80;;;;;;5072792;28;20510;-62
2023/08/05 00:12:56;;;;;;;2.55;1.35;;;21.90;74.80;;;;;;5071182;28;20036;-63
2023/08/05 00:15:22;;;;;;;3.38;1.30;;;21.90;74.80;;;;;;5072871;28;20044;-62
2023/08/05 00:17:47;;;;;;;2.25;1.10;;;21.90;74.80;;;;;;5072023;28;20036;-62
2023/08/05 00:20:13;;;;;;;4.55;1.40;;;21.90;74.70;;;;;;5072329;28;20391;-63
2023/08/05 00:22:38;;;;;;;2.67;1.00;;;21.90;74.70;;;;;;5071202;28;20044;-62
2023/08/05 00:25:04;;;;;;;4.03;1.20;;;21.90;74.70;;;;;;5072839;28;20480;-62
2023/08/05 00:27:30;;;;;;;3.28;1.23;;;21.90;74.70;;;;;;5071772;28;20033;-62
2023/08/05 00:29:55;;;;;;;3.38;1.50;;;21.90;74.60;;;;;;5071016;28;20075;-62
2023/08/05 00:32:21;;;;;;;2.28;1.10;;;21.80;74.60;;;;;;5072229;28;20056;-63
2023/08/05 00:34:47;;;;;;;1.85;1.10;;;21.90;74.60;;;;;;5071399;28;20082;-63
2023/08/05 00:37:12;;;;;;;2.90;1.45;;;21.90;74.60;;;;;;5072640;28;20234;-63
2023/08/05 00:39:38;;;;;;;1.48;1.00;;;21.90;74.60;;;;;;5051567;28;20037;-63
2023/08/05 00:42:04;;;;;;;1.90;1.20;;;21.90;74.60;;;;;;5052428;28;20033;-63
2023/08/05 00:44:30;;;;;;;3.25;1.30;;;21.90;74.60;;;;;;5071384;28;20047;-63
2023/08/05 00:46:56;;;;;;;1.63;1.05;;;21.90;74.60;;;;;;5071559;28;20037;-62
2023/08/05 00:49:22;;;;;;;2.70;1.15;;;21.90;74.50;;;;;;5071006;28;20041;-62
2023/08/05 00:51:47;;;;;;;1.63;1.13;;;21.90;74.50;;;;;;5072301;28;20499;-62
2023/08/05 00:54:13;;;;;;;2.50;1.33;;;21.80;74.40;;;;;;5071423;28;20045;-62
2023/08/05 00:56:38;;;;;;;2.15;1.23;;;21.80;74.40;;;;;;5069699;28;20086;-62
2023/08/05 00:59:04;;;;;;;2.22;1.20;;;21.80;74.40;;;;;;5070811;28;20097;-62
2023/08/05 01:01:29;;;;;;;2.78;1.25;;;21.80;74.40;;;;;;5070516;28;20127;-62
2023/08/05 01:03:55;;;;;;;2.30;1.27;;;21.80;74.40;;;;;;5070444;28;20052;-62
2023/08/05 01:06:24;;;;;;;2.28;1.20;;;21.80;74.40;;;;;;5072124;28;20040;-62
2023/08/05 01:08:49;;;;;;;2.55;1.40;;;21.80;74.40;;;;;;5070735;28;20076;-62
2023/08/05 01:11:16;;;;;;;3.17;1.23;;;21.80;74.40;;;;;;5072032;28;20084;-62
2023/08/05 01:13:42;;;;;;;2.10;1.23;;;21.80;74.40;;;;;;5070714;28;20048;-62
2023/08/05 01:16:07;;;;;;;2.78;1.00;;;21.80;74.40;;;;;;5070285;28;20058;-62
2023/08/05 01:18:34;;;;;;;3.30;1.30;;;21.70;74.30;;;;;;5071647;28;20044;-62
2023/08/05 01:20:59;;;;;;;3.35;1.45;;;21.80;74.40;;;;;;5071055;28;20040;-62
2023/08/05 01:23:28;;;;;;;3.10;1.42;;;21.80;74.30;;;;;;5070332;28;20510;-62
2023/08/05 01:25:54;;;;;;;3.05;1.20;;;21.70;74.30;;;;;;5055310;28;20048;-62
2023/08/05 01:28:19;;;;;;;2.50;1.40;;;21.70;74.30;;;;;;5075773;28;20136;-62
2023/08/05 01:30:45;;;;;;;2.85;1.13;;;21.80;74.30;;;;;;5074415;28;20106;-62
2023/08/05 01:33:11;;;;;;;2.03;1.17;;;21.70;74.20;;;;;;5057581;28;20055;-62
2023/08/05 01:35:37;;;;;;;2.92;1.40;;;21.80;74.30;;;;;;5057567;28;20078;-62
2023/08/05 01:38:03;;;;;;;2.30;1.08;;;21.70;74.20;;;;;;5074858;28;20076;-62
2023/08/05 01:40:28;;;;;;;1.98;1.13;;;21.80;74.20;;;;;;5075681;28;20044;-63
2023/08/05 01:42:57;;;;;;;3.83;1.30;;;21.80;74.20;;;;;;5074206;28;20040;-62
2023/08/05 01:45:23;;;;;;;1.88;1.20;;;21.70;74.10;;;;;;5075796;28;20075;-63
2023/08/05 01:47:48;;;;;;;2.42;1.30;;;21.70;74.20;;;;;;5073675;28;20064;-62
2023/08/05 01:50:14;;;;;;;2.35;1.10;;;21.70;74.20;;;;;;5074925;28;20037;-62
2023/08/05 01:52:39;;;;;;;2.28;1.45;;;21.70;74.20;;;;;;5075210;28;20461;-63
2023/08/05 01:55:05;;;;;;;2.13;1.20;;;21.70;74.20;;;;;;5075292;28;20063;-62
2023/08/05 01:57:31;;;;;;;1.95;1.23;;;21.70;74.10;;;;;;5074670;28;20044;-63
2023/08/05 01:59:56;;;;;;;2.60;1.52;;;21.70;74.10;;;;;;5073359;28;20047;-63
2023/08/05 02:02:22;;;;;;;2.25;1.10;;;21.70;74.10;;;;;;5073420;28;20056;-63
2023/08/05 02:04:48;;;;;;;2.95;1.27;;;21.70;74.10;;;;;;5073127;28;20041;-63
2023/08/05 02:07:13;;;;;;;2.30;1.50;;;21.60;74.00;;;;;;5072862;28;20126;-63
2023/08/05 02:09:39;;;;;;;2.95;1.30;;;21.70;74.10;;;;;;5074116;28;20037;-63
2023/08/05 02:12:05;;;;;;;2.63;1.50;;;21.70;74.10;;;;;;5074435;28;20036;-63
2023/08/05 02:14:30;;;;;;;2.53;1.17;;;21.70;74.10;;;;;;5075094;28;20144;-62
2023/08/05 02:16:56;;;;;;;2.05;1.23;;;21.70;74.00;;;;;;5074683;28;20042;-62
2023/08/05 02:19:21;;;;;;;2.60;1.38;;;21.60;74.00;;;;;;5072437;28;20045;-62
2023/08/05 02:21:47;;;;;;;3.08;1.05;;;21.60;74.00;;;;;;5074772;28;20040;-63
2023/08/05 02:24:12;;;;;;;2.83;1.58;;;21.60;74.00;;;;;;5074814;28;20048;-62
2023/08/05 02:26:38;;;;;;;2.08;1.17;;;21.60;74.00;;;;;;5073892;28;20120;-62
2023/08/05 02:29:04;;;;;;;2.90;1.27;;;21.60;73.90;;;;;;5074781;28;20063;-62
2023/08/05 02:31:29;;;;;;;2.88;1.20;;;21.60;74.00;;;;;;5074482;28;20496;-62
2023/08/05 02:33:55;;;;;;;2.55;1.30;;;21.60;73.90;;;;;;5073663;28;20036;-63
2023/08/05 02:36:20;;;;;;;2.65;1.10;;;21.60;73.90;;;;;;5074386;28;20039;-62
2023/08/05 02:38:46;;;;;;;4.15;1.73;;;21.60;73.90;;;;;;5072439;28;20044;-62
2023/08/05 02:41:11;;;;;;;3.60;1.80;;;21.60;73.90;;;;;;5073932;28;20143;-63
2023/08/05 02:43:37;;;;;;;2.38;1.33;;;21.60;73.90;;;;;;5074139;28;20040;-62
2023/08/05 02:46:02;;;;;;;2.10;1.30;;;21.60;73.90;;;;;;5074445;28;20040;-62
2023/08/05 02:48:28;;;;;;;2.88;1.27;;;21.60;73.90;;;;;;5073498;28;20379;-63
2023/08/05 02:50:54;;;;;;;2.70;1.23;;;21.60;73.90;;;;;;5073860;28;20048;-62
2023/08/05 02:53:20;;;;;;;1.58;1.20;;;21.60;73.80;;;;;;5073511;28;20399;-62
2023/08/05 02:55:45;;;;;;;1.95;1.20;;;21.60;73.80;;;;;;5074063;28;20036;-63
2023/08/05 02:58:11;;;;;;;2.88;1.10;;;21.60;73.80;;;;;;5073795;28;20074;-63
2023/08/05 03:00:37;;;;;;;3.38;1.20;;;21.60;73.80;;;;;;5073269;28;20251;-63
2023/08/05 03:03:02;;;;;;;2.97;1.30;;;21.60;73.80;;;;;;5074021;28;20437;-62
2023/08/05 03:05:28;;;;;;;3.03;1.35;;;21.60;73.80;;;;;;5074032;28;20043;-62
2023/08/05 03:07:54;;;;;;;2.35;1.33;;;21.50;73.70;;;;;;5072873;28;20044;-62
2023/08/05 03:10:20;;;;;;;2.15;1.38;;;21.50;73.70;;;;;;5074022;28;20123;-62
2023/08/05 03:12:45;;;;;;;2.60;1.30;;;21.60;73.80;;;;;;5073607;28;20170;-62
2023/08/05 03:15:11;;;;;;;2.45;1.58;;;21.50;73.70;;;;;;5072934;28;20040;-64
2023/08/05 03:17:36;;;;;;;2.33;1.27;;;21.50;73.70;;;;;;5073491;28;20051;-62
2023/08/05 03:20:05;;;;;;;3.13;1.40;;;21.50;73.70;;;;;;5072467;28;20060;-63
2023/08/05 03:22:31;;;;;;;2.05;1.27;;;21.50;73.70;;;;;;5072697;28;20479;-63
2023/08/05 03:25:00;;;;;;;2.13;1.23;;;21.50;73.70;;;;;;5071788;28;20051;-62
2023/08/05 03:27:26;;;;;;;2.45;1.30;;;21.50;73.70;;;;;;5072337;28;20090;-63
2023/08/05 03:29:52;;;;;;;3.40;1.35;;;21.50;73.70;;;;;;5072125;28;20040;-62
2023/08/05 03:32:17;;;;;;;2.40;1.30;;;21.50;73.70;;;;;;5073253;28;20064;-64
2023/08/05 03:34:43;;;;;;;3.55;1.58;;;21.50;73.70;;;;;;5072875;28;20037;-63
2023/08/05 03:37:08;;;;;;;2.03;1.40;;;21.50;73.70;;;;;;5072392;28;20040;-63
2023/08/05 03:39:34;;;;;;;2.17;1.30;;;21.50;73.60;;;;;;5074508;28;20507;-63
2023/08/05 03:41:59;;;;;;;2.60;1.30;;;21.50;73.70;;;;;;5073438;28;20047;-62
2023/08/05 03:44:25;;;;;;;1.90;1.15;;;21.50;73.60;;;;;;5071011;28;20040;-63
2023/08/05 03:46:51;;;;;;;2.20;1.27;;;21.50;73.60;;;;;;5072936;28;20051;-62
2023/08/05 03:49:17;;;;;;;2.88;1.30;;;21.50;73.60;;;;;;5071836;28;20520;-62
2023/08/05 03:51:42;;;;;;;2.20;1.25;;;21.50;73.60;;;;;;5071835;28;20044;-62
2023/08/05 03:54:08;;;;;;;1.85;1.42;;;21.50;73.60;;;;;;5072995;28;20028;-63
2023/08/05 03:56:33;;;;;;;1.80;1.20;;;21.50;73.60;;;;;;5072072;28;20051;-63
2023/08/05 03:58:59;;;;;;;3.35;1.38;;;21.40;73.50;;;;;;5072917;28;20047;-62
2023/08/05 04:01:26;;;;;;;2.50;1.23;;;21.50;73.60;;;;;;5065581;28;20040;-62
2023/08/05 04:03:52;;;;;;;2.97;1.40;;;21.50;73.50;;;;;;5063989;28;20395;-63
2023/08/05 04:06:20;;;;;;;1.75;1.27;;;21.50;73.50;;;;;;5073059;28;20507;-63
2023/08/05 04:08:50;;;;;;;1.85;1.30;;;21.40;73.50;;;;;;5071407;28;20079;-62
2023/08/05 04:11:16;;;;;;;2.75;1.40;;;21.40;73.50;;;;;;5072455;28;20121;-62
2023/08/05 04:13:44;;;;;;;2.65;1.30;;;21.40;73.50;;;;;;5072563;28;20079;-63
2023/08/05 04:16:10;;;;;;;3.15;1.52;;;21.40;73.50;;;;;;5072637;28;20400;-63
2023/08/05 04:18:37;;;;;;;3.03;1.40;;;21.40;73.50;;;;;;5071685;28;20484;-63
2023/08/05 04:21:05;;;;;;;3.10;1.63;;;21.40;73.50;;;;;;5072225;28;20503;-63
2023/08/05 04:23:34;;;;;;;2.55;1.60;;;21.40;73.40;;;;;;5072896;28;20074;-63
2023/08/05 04:26:01;;;;;;;2.22;1.33;;;21.40;73.40;;;;;;5072013;28;20044;-63
2023/08/05 04:28:27;;;;;;;2.70;1.30;;;21.40;73.40;;;;;;5072673;28;20170;-63
2023/08/05 04:30:53;;;;;;;2.00;1.05;;;21.40;73.40;;;;;;5071868;28;20090;-63
2023/08/05 04:33:18;;;;;;;2.03;1.20;;;21.40;73.40;;;;;;5071498;28;20044;-62
2023/08/05 04:35:47;;;;;;;3.38;1.30;;;21.40;73.40;;;;;;5072392;28;20044;-62
2023/08/05 04:38:14;;;;;;;2.47;1.17;;;21.40;73.40;;;;;;5072488;28;20442;-63
2023/08/05 04:40:39;;;;;;;2.92;1.50;;;21.40;74.00;;;;;;5070267;28;20071;-63
2023/08/05 04:43:05;;;;;;;2.35;1.27;;;21.40;73.40;;;;;;5072549;28;20522;-63
2023/08/05 04:45:30;;;;;;;1.85;1.10;;;21.40;73.40;;;;;;5071087;28;20407;-63
2023/08/05 04:47:56;;;;;;;1.80;1.20;;;21.40;73.40;;;;;;5071569;28;20043;-62
2023/08/05 04:50:22;;;;;;;2.78;1.30;;;21.30;73.30;;;;;;5072407;28;20040;-62
2023/08/05 04:52:48;;;;;;;1.95;1.23;;;21.30;73.30;;;;;;5071425;28;20040;-62
2023/08/05 04:55:15;;;;;;;2.38;1.20;;;21.40;73.30;;;;;;5072522;28;20496;-62
2023/08/05 04:57:42;;;;;;;4.68;1.40;;;21.40;73.40;;;;;;5070732;28;20040;-63
2023/08/05 05:00:08;;;;;;;2.72;1.50;;;21.30;73.30;;;;;;5073432;28;20052;-63
2023/08/05 05:02:33;;;;;;;2.22;1.00;;;21.30;73.30;;;;;;5074976;28;20125;-63
2023/08/05 05:04:59;;;;;;;2.15;1.30;;;21.30;73.30;;;;;;5074600;28;20480;-62
2023/08/05 05:07:25;;;;;;;2.67;1.33;;;21.40;73.30;;;;;;5075825;28;20040;-63
2023/08/05 05:09:50;;;;;;;2.13;1.20;;;21.40;73.30;;;;;;5075809;28;20052;-63
2023/08/05 05:12:16;;;;;;;2.60;1.23;;;21.40;73.30;;;;;;5076081;28;20492;-63
2023/08/05 05:14:43;;;;;;;1.90;1.10;;;21.40;73.30;;;;;;5074983;28;20111;-63
2023/08/05 05:17:09;;;;;;;3.28;1.58;;;21.40;73.40;;;;;;5075634;28;20241;-62
2023/08/05 05:19:34;;;;;;;2.40;1.25;;;21.40;73.60;;;;;;5075585;28;20131;-62
2023/08/05 05:22:00;;;;;;;2.25;1.27;;;21.40;73.60;;;;;;5073951;28;20036;-63
2023/08/05 05:24:25;;;;;;;3.15;1.30;;;21.40;73.70;;;;;;5075924;28;20040;-63
2023/08/05 05:26:51;;;;;;;1.90;1.23;;;21.40;73.80;;;;;;5075691;28;20040;-62
2023/08/05 05:29:19;;;;;;;1.45;0.93;;;21.40;73.80;;;;;;5074999;28;20474;-63
2023/08/05 05:31:45;;;;;;;1.63;1.10;;;21.40;73.80;;;;;;5075192;28;20053;-63
2023/08/05 05:34:11;;;;;;;2.53;1.35;;;21.50;73.80;;;;;;5075873;28;20047;-62
2023/08/05 05:36:36;;;;;;;1.70;1.30;;;21.50;73.80;;;;;;5074635;28;20074;-63
2023/08/05 05:39:02;;;;;;;1.75;1.10;;;21.50;73.70;;;;;;5075766;28;20045;-63
2023/08/05 05:41:28;;;;;;;2.33;1.20;;;21.50;73.70;;;;;;5075526;28;20119;-63
2023/08/05 05:43:55;;;;;;;1.90;1.13;;;21.50;73.70;;;;;;5074538;28;20143;-63
2023/08/05 05:46:21;;;;;;;2.22;1.48;;;21.50;73.70;;;;;;5074052;28;20167;-63
2023/08/05 05:48:47;;;;;;;2.53;1.45;;;21.50;73.70;;;;;;5075135;28;20112;-63
2023/08/05 05:51:13;;;;;;;1.90;1.23;;;21.50;73.70;;;;;;5074845;28;20032;-63
2023/08/05 05:53:38;;;;;;;2.00;1.10;;;21.50;73.70;;;;;;5075258;28;20045;-63
2023/08/05 05:56:05;;;;;;;2.38;1.58;;;21.50;73.70;;;;;;5074276;28;20051;-63
2023/08/05 05:58:34;;;;;;;1.52;1.20;;;21.50;73.70;;;;;;5075446;28;20063;-62
2023/08/05 06:01:00;;;;;;;2.60;1.52;;;21.50;73.70;;;;;;5075092;28;20075;-64
2023/08/05 06:03:26;;;;;;;2.13;1.48;;;21.50;73.70;;;;;;5074473;28;20083;-63
2023/08/05 06:05:51;;;;;;;1.40;1.02;;;21.50;73.70;;;;;;5074891;28;20032;-63
2023/08/05 06:08:17;;;;;;;1.58;1.30;;;21.50;73.70;;;;;;5075188;28;20048;-63
2023/08/05 06:10:43;;;;;;;2.58;1.40;;;21.50;73.70;;;;;;5073759;28;20040;-63
2023/08/05 06:13:09;;;;;;;1.90;1.20;;;21.50;73.70;;;;;;5074528;28;20510;-64
2023/08/05 06:15:38;;;;;;;2.17;1.30;;;21.50;73.80;;;;;;5074530;28;20055;-63
2023/08/05 06:18:04;;;;;;;3.67;1.40;;;21.50;73.70;;;;;;5056143;28;20135;-63
2023/08/05 06:20:33;;;;;;;1.88;1.20;;;21.50;73.70;;;;;;5074537;28;20116;-63
2023/08/05 06:22:58;;;;;;;1.95;1.33;;;21.50;73.70;;;;;;5074335;28;20109;-63
2023/08/05 06:25:24;;;;;;;2.92;1.30;;;21.50;73.70;;;;;;5073850;28;20040;-64
2023/08/05 06:27:49;;;;;;;2.20;1.38;;;21.50;73.80;;;;;;5074659;28;20051;-63
2023/08/05 06:30:15;;;;;;;2.17;1.42;;;21.50;73.80;;;;;;5074392;28;20377;-63
2023/08/05 06:32:40;;;;;;;2.28;1.20;;;21.40;73.80;;;;;;5073400;28;20052;-63
2023/08/05 06:35:06;;;;;;;3.13;1.30;;;21.40;73.70;;;;;;5074220;28;20806;-63
2023/08/05 06:37:32;;;;;;;2.42;1.38;;;21.40;73.80;;;;;;5074666;28;20036;-64
2023/08/05 06:39:57;;;;;;;3.33;1.20;;;21.40;73.80;;;;;;5073098;28;20227;-64
2023/08/05 06:42:24;;;;;;;2.67;1.50;;;21.50;73.80;;;;;;5073353;28;20044;-63
2023/08/05 06:44:50;;;;;;;3.47;1.52;;;21.50;73.80;;;;;;5074017;28;20044;-63
2023/08/05 06:47:15;;;;;;;6.10;1.60;;;21.50;73.80;;;;;;5073975;28;20044;-63
2023/08/05 06:49:41;;;;;;;3.15;1.40;;;21.50;73.70;;;;;;5074025;28;20476;-63
2023/08/05 06:52:07;;;;;;;2.75;1.25;;;21.50;73.70;;;;;;5073946;28;20412;-63
2023/08/05 06:54:33;;;;;;;4.47;1.50;;;21.50;73.80;;;;;;5071874;28;20396;-63
2023/08/05 06:56:58;;;;;;;3.60;1.40;;;21.50;73.70;;;;;;5072103;28;20082;-65
2023/08/05 06:59:24;;;;;;;4.45;1.65;;;21.60;73.70;;;;;;5072308;28;20557;-64
2023/08/05 07:01:49;;;;;;;4.80;1.50;;;21.50;73.70;;;;;;5073270;28;20044;-66
2023/08/05 07:04:15;;;;;;;3.40;1.50;;;21.60;73.90;;;;;;5074098;28;20045;-66
2023/08/05 07:06:42;;;;;;;3.08;1.80;;;21.60;74.00;;;;;;5073038;28;20156;-66
2023/08/05 07:09:08;;;;;;;4.25;1.70;;;21.60;74.00;;;;;;5074117;28;20053;-63
2023/08/05 07:11:35;;;;;;;3.63;1.70;;;21.60;74.00;;;;;;5073414;28;20424;-64
2023/08/05 07:14:01;;;;;;;4.68;1.80;;;21.60;74.10;;;;;;5073285;28;20135;-65
2023/08/05 07:16:26;;;;;;;4.28;1.38;;;21.70;74.10;;;;;;5073844;28;20064;-64
2023/08/05 07:18:52;;;;;;;4.32;1.75;;;21.70;74.10;;;;;;5073388;28;20396;-64
2023/08/05 07:21:18;;;;;;;4.72;1.70;;;21.70;74.10;;;;;;5072935;28;20048;-65
2023/08/05 07:23:44;;;;;;;3.20;1.60;;;21.70;74.10;;;;;;5072383;28;20399;-62
2023/08/05 07:26:09;;;;;;;3.92;1.45;;;21.70;74.10;;;;;;5072251;28;20040;-65
2023/08/05 07:28:35;;;;;;;3.83;1.60;;;21.70;74.00;;;;;;5072591;28;20080;-63
2023/08/05 07:31:04;;;;;;;3.30;1.50;;;21.70;74.10;;;;;;5072123;28;20068;-64
2023/08/05 07:33:30;;;;;;;2.88;1.50;;;21.80;74.10;;;;;;5072468;28;20044;-63
2023/08/05 07:35:56;;;;;;;3.38;1.55;;;21.80;74.10;;;;;;5072394;28;20450;-63
2023/08/05 07:38:25;;;;;;;3.75;1.80;;;21.80;74.10;;;;;;5072883;28;20075;-63
2023/08/05 07:40:54;;;;;;;2.92;1.50;;;21.70;74.00;;;;;;5071378;28;20029;-64
2023/08/05 07:43:23;;;;;;;3.67;1.50;;;21.80;74.00;;;;;;5072698;28;20131;-67
2023/08/05 07:45:52;;;;;;;2.75;1.50;;;21.80;74.00;;;;;;5072836;28;20127;-66
2023/08/05 07:48:19;;;;;;;3.25;1.52;;;21.70;74.00;;;;;;5071711;28;20055;-67
2023/08/05 07:50:45;;;;;;;6.20;1.40;;;21.80;74.00;;;;;;5071874;28;20153;-67
2023/08/05 07:53:11;;;;;;;4.22;1.75;;;21.80;74.00;;;;;;5073279;28;20153;-66
2023/08/05 07:55:37;;;;;;;4.43;1.48;;;21.80;73.90;;;;;;5071375;28;20440;-65
2023/08/05 07:58:04;;;;;;;5.68;1.67;;;21.80;73.90;;;;;;5073090;28;20523;-65
2023/08/05 08:00:30;;;;;;;5.25;1.45;;;21.80;73.90;;;;;;5072711;28;20048;-63
2023/08/05 08:02:56;;;;;;;3.63;1.58;;;21.80;73.90;;;;;;5071517;28;20044;-70
2023/08/05 08:05:22;;;;;;;6.18;1.70;;;21.80;73.90;;;;;;5072229;28;20044;-64
2023/08/05 08:07:47;;;;;;;4.53;1.55;;;21.80;73.80;;;;;;5071874;28;20055;-64
2023/08/05 08:10:14;;;;;;;5.75;1.80;;;21.90;73.90;;;;;;5071981;28;20550;-64
2023/08/05 08:12:39;;;;;;;6.38;1.70;;;21.90;74.00;;;;;;5072351;28;20079;-64
2023/08/05 08:15:05;;;;;;;4.43;1.40;;;21.90;74.00;;;;;;5072922;28;20076;-64
2023/08/05 08:17:32;;;;;;;4.20;1.88;;;21.90;73.90;;;;;;5070684;28;20119;-64
2023/08/05 08:19:58;;;;;;;3.42;1.50;;;21.90;74.00;;;;;;5070406;28;20109;-66
2023/08/05 08:22:23;;;;;;;3.33;1.45;;;21.90;73.90;;;;;;5072579;28;20491;-66
2023/08/05 08:24:49;;;;;;;5.10;1.65;;;21.90;73.80;;;;;;5071661;28;20521;-66
2023/08/05 08:27:15;;;;;;;4.35;1.52;;;22.00;73.80;;;;;;5072733;28;20047;-66
2023/08/05 08:29:40;;;;;;;6.50;1.75;;;22.00;73.60;;;;;;5070592;28;20123;-66
2023/08/05 08:32:06;;;;;;;4.22;1.35;;;22.00;73.60;;;;;;5069677;28;20057;-66
2023/08/05 08:34:32;;;;;;;4.75;1.75;;;21.90;73.50;;;;;;5071426;28;20083;-67
2023/08/05 08:36:57;;;;;;;6.18;1.77;;;21.90;73.50;;;;;;5071964;28;20040;-63
2023/08/05 08:39:23;;;;;;;4.72;1.83;;;22.00;73.40;;;;;;5069395;28;20036;-65
2023/08/05 08:41:49;;;;;;;4.18;1.63;;;22.00;73.50;;;;;;5071633;28;20150;-65
2023/08/05 08:44:18;;;;;;;5.40;1.90;;;22.00;73.40;;;;;;5071996;28;20040;-64
2023/08/05 08:46:44;;;;;;;4.88;1.67;;;22.00;73.40;;;;;;5053016;28;20472;-63
2023/08/05 08:49:11;;;;;;;3.72;1.60;;;22.00;73.30;;;;;;5070844;28;20041;-65
2023/08/05 08:51:37;;;;;;;7.00;2.35;;;22.00;73.30;;;;;;5037540;28;20127;-65
2023/08/05 08:54:03;;;;;;;6.90;1.52;;;22.00;73.30;;;;;;5070624;28;20044;-66
2023/08/05 08:56:30;;;;;;;4.13;1.50;;;22.00;73.20;;;;;;5072285;28;20040;-64
2023/08/05 08:58:55;;;;;;;6.40;1.60;;;22.00;73.10;;;;;;5070952;28;20047;-65
2023/08/05 09:01:21;;;;;;;4.40;1.50;;;22.00;73.10;;;;;;5072564;28;20037;-64
2023/08/05 09:03:49;;;;;;;4.75;1.80;;;22.00;73.10;;;;;;5053951;28;20548;-65
2023/08/05 09:06:14;;;;;;;3.17;1.50;;;22.00;73.00;;;;;;5053559;28;20041;-65
2023/08/05 09:08:40;;;;;;;4.93;1.60;;;22.00;73.00;;;;;;5053619;28;20051;-65
2023/08/05 09:11:05;;;;;;;3.92;1.50;;;22.10;73.00;;;;;;5072336;28;20036;-65
2023/08/05 09:13:31;;;;;;;3.00;1.52;;;22.10;73.00;;;;;;5070432;28;20044;-65
2023/08/05 09:15:57;;;;;;;4.68;1.48;;;22.10;72.90;;;;;;5071885;28;20488;-65
2023/08/05 09:18:22;;;;;;;6.65;1.90;;;22.10;72.90;;;;;;5072126;28;20040;-65
2023/08/05 09:20:49;;;;;;;3.03;1.60;;;22.10;72.90;;;;;;5070732;28;20048;-65
2023/08/05 09:23:15;;;;;;;4.25;1.92;;;22.10;72.90;;;;;;5072111;28;20377;-65
2023/08/05 09:25:42;;;;;;;4.07;1.70;;;22.10;72.80;;;;;;5071935;28;20118;-65
2023/08/05 09:28:08;;;;;;;3.60;1.50;;;22.10;72.80;;;;;;5071416;28;20528;-64
2023/08/05 09:30:34;;;;;;;3.70;1.63;;;22.20;72.80;;;;;;5071698;28;20119;-65
2023/08/05 09:33:00;;;;;;;5.10;1.70;;;22.20;72.80;;;;;;5070699;28;20056;-64
2023/08/05 09:35:26;;;;;;;4.93;1.55;;;22.20;72.70;;;;;;5070753;28;20033;-64
2023/08/05 09:37:52;;;;;;;6.28;1.48;;;22.10;72.70;;;;;;5071645;28;20048;-65
2023/08/05 09:40:19;;;;;;;4.40;1.50;;;22.20;72.70;;;;;;5071987;28;20125;-65
2023/08/05 09:42:51;;;;;;;4.32;1.55;;;22.20;72.70;;;;;;5071053;28;20051;-65
2023/08/05 09:45:18;;;;;;;3.33;1.40;;;22.20;72.60;;;;;;5071444;28;20036;-65
2023/08/05 09:47:47;;;;;;;3.25;1.48;;;22.20;72.60;;;;;;5074504;28;20044;-65
2023/08/05 09:50:13;;;;;;;3.90;1.70;;;22.20;72.60;;;;;;5073181;28;20055;-65
2023/08/05 09:52:39;;;;;;;3.60;1.85;;;22.20;72.60;;;;;;5075130;28;20553;-65
2023/08/05 09:55:11;;;;;;;3.15;1.42;;;22.20;72.50;;;;;;5075243;28;20051;-65
2023/08/05 09:57:37;;;;;;;4.45;1.80;;;22.20;72.50;;;;;;5075068;28;20047;-65
2023/08/05 10:00:08;;;;;;;5.00;1.73;;;22.20;72.50;;;;;;5073509;28;20076;-64
2023/08/05 10:02:37;;;;;;;3.08;1.52;;;22.20;72.40;;;;;;5071181;28;20044;-65
2023/08/05 10:05:03;;;;;;;2.72;1.50;;;22.20;72.50;;;;;;5074129;28;20040;-65
2023/08/05 10:07:28;;;;;;;2.30;1.33;;;22.20;72.30;;;;;;5074366;28;20062;-64
2023/08/05 10:09:54;;;;;;;3.20;1.65;;;22.30;72.40;;;;;;5073782;28;20058;-64
2023/08/05 10:12:21;;;;;;;5.65;1.70;;;22.20;72.30;;;;;;5074142;28;20383;-64
2023/08/05 10:14:47;;;;;;;3.83;1.75;;;22.30;72.20;;;;;;5052375;28;20103;-63
2023/08/05 10:17:13;;;;;;;4.97;1.35;;;22.30;72.00;;;;;;5053894;28;20033;-64
2023/08/05 10:19:39;;;;;;;4.47;1.58;;;22.30;72.00;;;;;;5065014;28;20044;-64
2023/08/05 10:22:11;;;;;;;3.38;1.73;;;22.30;71.90;;;;;;5056137;28;20532;-63
2023/08/05 10:25:00;;;;;;;3.10;1.63;;;22.30;71.80;;;;;;5063415;28;20040;-63
2023/08/05 10:27:44;;;;;;;4.03;1.60;;;22.30;71.50;;;;;;5062237;28;20040;-64
2023/08/05 10:30:14;;;;;;;5.07;1.80;;;22.30;71.40;;;;;;5059088;28;20078;-66
2023/08/05 10:32:49;;;;;;;2.72;1.67;;;22.30;71.40;;;;;;5063667;28;20087;-67
2023/08/05 10:35:28;;;;;;;3.22;1.75;;;22.30;71.10;;;;;;5058083;28;20044;-63
2023/08/05 10:38:16;;;;;;;6.10;2.05;;;22.30;71.50;;;;;;5070646;28;20044;-64
2023/08/05 10:41:00;;;;;;;5.50;1.90;;;22.30;71.70;;;;;;5070972;28;20079;-64
2023/08/05 10:43:30;;;;;;;7.47;2.20;;;22.40;71.60;;;;;;5074266;28;20068;-66
2023/08/05 10:45:59;;;;;;;5.90;2.00;;;22.40;71.80;;;;;;5072742;28;20072;-65
2023/08/05 10:48:35;;;;;;;4.82;2.00;;;22.40;72.00;;;;;;5073737;28;20113;-64
2023/08/05 10:51:24;;;;;;;3.83;2.00;;;22.40;71.90;;;;;;5072411;28;20098;-64
2023/08/05 10:53:56;;;;;;;4.00;1.63;;;22.40;71.80;;;;;;5073545;28;20388;-65
2023/08/05 10:56:32;;;;;;;3.75;1.80;;;22.40;71.80;;;;;;5074028;28;20071;-65
2023/08/05 10:58:59;;;;;;;5.03;1.92;;;22.40;71.80;;;;;;5073022;28;20048;-65
2023/08/05 11:01:51;;;;;;;4.22;1.85;;;22.50;71.80;;;;;;5074167;28;20044;-65
2023/08/05 11:04:28;;;;;;;6.68;2.17;;;22.50;71.80;;;;;;5072826;28;20048;-65
2023/08/05 11:06:54;;;;;;;4.38;1.83;;;22.50;71.80;;;;;;5071935;28;20135;-64
2023/08/05 11:09:20;;;;;;;5.82;1.90;;;22.50;71.80;;;;;;5073990;28;20047;-65
2023/08/05 11:11:48;;;;;;;5.30;2.22;;;22.50;71.90;;;;;;5072209;28;20040;-65
2023/08/05 11:14:13;;;;;;;8.55;2.70;;;22.60;71.90;;;;;;5071883;28;20144;-65
2023/08/05 11:16:44;;;;;;;4.55;2.20;;;22.50;71.90;;;;;;5073002;28;20527;-65
2023/08/05 11:19:11;;;;;;;6.10;2.33;;;22.60;72.00;;;;;;5072233;28;20047;-65
2023/08/05 11:21:36;;;;;;;6.75;2.55;;;22.60;72.00;;;;;;5072242;28;20110;-65
2023/08/05 11:24:02;;;;;;;9.25;2.92;;;22.60;71.90;;;;;;5039112;28;20145;-64
2023/08/05 11:26:27;;;;;;;5.82;2.60;;;22.60;72.00;;;;;;5055512;28;20040;-65
2023/08/05 11:28:53;;;;;;;5.85;2.65;;;22.60;71.90;;;;;;5071647;28;20045;-65
2023/08/05 11:31:25;;;;;;;4.15;1.90;;;22.60;71.90;;;;;;5072189;28;20056;-65
2023/08/05 11:33:51;;;;;;;5.97;2.60;;;22.60;71.90;;;;;;5071022;28;20097;-65
2023/08/05 11:36:23;;;;;;;6.45;2.30;;;22.60;71.90;;;;;;5073273;28;20037;-65
2023/08/05 11:38:49;;;;;;;5.05;2.45;;;22.60;71.90;;;;;;5073165;28;20052;-65
2023/08/05 11:41:15;;;;;;;6.03;2.25;;;22.60;71.90;;;;;;5072413;28;20380;-66
2023/08/05 11:43:40;;;;;;;7.40;2.17;;;22.60;71.90;;;;;;5038680;28;20499;-65
2023/08/05 11:46:06;;;;;;;4.72;2.30;;;22.60;71.90;;;;;;5073172;28;20086;-65
2023/08/05 11:48:32;;;;;;;5.07;2.50;;;22.60;71.90;;;;;;5052918;28;20512;-65
2023/08/05 11:50:59;;;;;;;4.38;2.40;;;22.60;71.80;;;;;;5067718;28;20048;-65
2023/08/05 11:53:25;;;;;;;5.07;2.95;;;22.60;71.60;;;;;;5073011;28;20404;-65
2023/08/05 11:55:51;;;;;;;7.15;3.42;;;22.60;71.30;;;;;;5071717;28;20170;-66
2023/08/05 11:58:16;;;;;;;6.05;3.70;;;22.60;71.00;;;;;;5072793;28;20135;-67
2023/08/05 12:00:51;;;;;;;5.95;3.85;;;22.60;70.70;;;;;;5072685;28;20052;-66
2023/08/05 12:03:17;;;;;;;6.05;3.42;;;22.60;70.40;;;;;;5072314;28;20051;-66
2023/08/05 12:05:43;;;;;;;5.88;3.17;;;22.60;70.30;;;;;;5072359;28;20032;-66
2023/08/05 12:08:09;;;;;;;6.90;3.97;;;22.60;70.10;;;;;;5071695;28;20117;-66
2023/08/05 12:10:35;;;;;;;7.50;4.30;;;22.50;69.60;;;;;;5070897;28;20487;-66
2023/08/05 12:13:04;;;;;;;6.70;4.28;;;22.50;69.40;;;;;;5072882;28;20052;-65
2023/08/05 12:15:30;;;;;;;6.72;4.40;;;22.50;69.80;;;;;;5072153;28;20041;-64
2023/08/05 12:18:03;;;;;;;5.20;4.07;;;22.50;69.00;;;;;;5071398;28;20387;-65
2023/08/05 12:20:33;;;;;;;7.68;4.50;;;22.50;68.80;;;;;;5070780;28;20048;-66
2023/08/05 12:22:59;;;;;;;6.50;4.28;;;22.50;68.80;;;;;;5068554;28;20127;-65
2023/08/05 12:25:25;;;;;;;10.82;5.28;;;22.50;68.60;;;;;;5070702;28;20575;-64
2023/08/05 12:27:51;;;;;;;7.18;4.57;;;22.50;68.30;;;;;;5069934;28;20399;-64
2023/08/05 12:30:17;;;;;;;7.68;4.35;;;22.40;68.10;;;;;;5069490;28;20048;-64
2023/08/05 12:32:42;;;;;;;6.90;4.45;;;22.40;68.10;;;;;;5070477;28;20135;-64
2023/08/05 12:35:09;;;;;;;6.93;4.70;;;22.40;68.00;;;;;;5072294;28;20128;-64
2023/08/05 12:37:36;;;;;;;7.68;4.65;;;22.40;68.00;;;;;;5071373;28;20087;-64
2023/08/05 12:40:02;;;;;;;6.93;4.53;;;22.40;68.00;;;;;;5072539;28;20059;-64
2023/08/05 12:42:28;;;;;;;6.75;4.45;;;22.40;68.00;;;;;;5084408;28;20139;-64
2023/08/05 12:44:53;;;;;;;7.70;4.38;;;22.40;68.10;;;;;;5049718;28;20127;-64